Terminal Aerodrome Forecast
Issued by NWS

Home | Current Version | Previous Version | Text Only | Print | Product List | Glossary On
Versions: 1 2 3 4 5 6 7 8 9 10 11 12 13 14
000
FTUS43 KMQT 260531
TAFSAW
TAF
KSAW 260531Z 2606/2706 04007KT 6SM -SHRA OVC030
     FM260900 03011KT 2SM -SHRA BR OVC003
     FM261500 07008KT 2SM -SHRA OVC003
     FM261600 14008KT 2SM -SHRA OVC003
     FM262100 19010KT 5SM -SHRA BR OVC006
     FM270000 18007KT 4SM -SHRA OVC003
     FM270300 32007KT 4SM -SHRA BR OVC003=

USA.gov is the U.S. government's official web portal to all federal, state and local government web resources and services.